Time;durP1;ratioP1;P1;durP2;ratioP2;P2;SDS_P1;SDS_P2;PMS_P1;PMS_P2;Temp;Humidity;BMP_temperature;BMP_pressure;BME280_temperature;BME280_humidity;BME280_pressure;Samples;Min_cycle;Max_cycle;Signal;HPM_P1;HPM_P2
2022/05/24 00:02:19;;;;;;;3.40;0.77;;;;;;;;;;5052174;28;20132;-76
2022/05/24 00:04:45;;;;;;;1.15;0.80;;;;;;;;;;5038688;28;20029;-77
2022/05/24 00:07:11;;;;;;;1.85;0.75;;;;;;;;;;5033434;28;20039;-76
2022/05/24 00:09:37;;;;;;;0.85;0.65;;;;;;;;;;5041314;28;20013;-78
2022/05/24 00:12:03;;;;;;;2.85;0.80;;;;;;;;;;5055279;28;20031;-76
2022/05/24 00:17:13;;;;;;;1.77;1.13;;;;;;;;;;5049271;28;20036;-76
2022/05/24 00:19:39;;;;;;;1.80;1.38;;;;;;;;;;5052386;28;20021;-77
2022/05/24 00:22:05;;;;;;;0.60;0.60;;;;;;;;;;5039196;28;20025;-77
2022/05/24 00:24:31;;;;;;;3.45;1.48;;;;;;;;;;5049991;28;20044;-77
2022/05/24 00:26:57;;;;;;;0.70;0.70;;;;;;;;;;5036201;28;20025;-76
2022/05/24 00:29:23;;;;;;;1.30;1.20;;;;;;;;;;5033904;28;20029;-76
2022/05/24 00:31:49;;;;;;;1.33;0.73;;;;;;;;;;5045954;28;20033;-76
2022/05/24 00:34:15;;;;;;;2.13;0.85;;;;;;;;;;5038633;28;20029;-77
2022/05/24 00:36:41;;;;;;;0.75;0.75;;;;;;;;;;5050970;28;20024;-77
2022/05/24 00:39:07;;;;;;;2.42;0.88;;;;;;;;;;5051209;28;20128;-76
2022/05/24 00:41:39;;;;;;;1.67;1.00;;;;;;;;;;5051160;28;20180;-77
2022/05/24 00:44:06;;;;;;;2.00;0.98;;;;;;;;;;5051539;28;20094;-77
2022/05/24 00:46:42;;;;;;;2.08;1.65;;;;;;;;;;5047747;28;20025;-76
2022/05/24 00:49:10;;;;;;;1.13;1.02;;;;;;;;;;5051135;28;20398;-77
2022/05/24 00:51:47;;;;;;;4.20;1.08;;;;;;;;;;5033921;28;20045;-76
2022/05/24 00:54:12;;;;;;;2.15;1.05;;;;;;;;;;5048400;28;20414;-77
2022/05/24 00:56:47;;;;;;;1.92;0.98;;;;;;;;;;5043634;28;20036;-76
2022/05/24 00:59:34;;;;;;;0.95;0.70;;;;;;;;;;5051621;28;20094;-77
2022/05/24 01:02:00;;;;;;;0.52;0.52;;;;;;;;;;5033895;28;20044;-76
2022/05/24 01:04:26;;;;;;;1.70;1.52;;;;;;;;;;5035255;28;20108;-76
2022/05/24 01:06:52;;;;;;;1.58;1.10;;;;;;;;;;5045834;28;20099;-76
2022/05/24 01:09:20;;;;;;;0.90;0.75;;;;;;;;;;5043134;28;20079;-77
2022/05/24 01:11:49;;;;;;;1.13;0.90;;;;;;;;;;5050674;28;20480;-77
2022/05/24 01:14:16;;;;;;;8.10;1.33;;;;;;;;;;5050925;28;20033;-77
2022/05/24 01:16:42;;;;;;;0.85;0.85;;;;;;;;;;5048057;28;20029;-77
2022/05/24 01:19:11;;;;;;;5.95;1.38;;;;;;;;;;5034009;28;20400;-77
2022/05/24 01:21:38;;;;;;;0.60;0.60;;;;;;;;;;5049814;28;20025;-76
2022/05/24 01:24:23;;;;;;;0.90;0.90;;;;;;;;;;5049728;28;20025;-76
2022/05/24 01:26:54;;;;;;;0.80;0.68;;;;;;;;;;5048592;28;20040;-78
2022/05/24 01:29:21;;;;;;;1.60;1.10;;;;;;;;;;5050612;28;20028;-77
2022/05/24 01:36:09;;;;;;;0.90;0.80;;;;;;;;;;5050736;28;20048;-76
2022/05/24 01:37:29;;;;;;;2.90;1.30;;;;;;;;;;5044648;28;20041;-77
2022/05/24 01:39:57;;;;;;;0.70;0.70;;;;;;;;;;5039747;28;20064;-76
2022/05/24 01:42:23;;;;;;;0.75;0.75;;;;;;;;;;5049285;28;20033;-77
2022/05/24 01:44:49;;;;;;;1.15;1.05;;;;;;;;;;5050462;28;20108;-77
2022/05/24 01:47:17;;;;;;;1.60;0.93;;;;;;;;;;5047984;28;20436;-77
2022/05/24 01:49:45;;;;;;;1.10;1.00;;;;;;;;;;5050251;28;20134;-77
2022/05/24 01:52:13;;;;;;;1.05;0.95;;;;;;;;;;5050146;28;20060;-76
2022/05/24 01:54:40;;;;;;;0.85;0.82;;;;;;;;;;5048161;28;20718;-76
2022/05/24 01:57:12;;;;;;;0.80;0.80;;;;;;;;;;5035048;28;20470;-76
2022/05/24 01:59:39;;;;;;;1.10;0.80;;;;;;;;;;5036585;28;20507;-77
2022/05/24 02:02:05;;;;;;;2.28;1.13;;;;;;;;;;5043539;28;20053;-76
2022/05/24 02:04:32;;;;;;;3.70;1.23;;;;;;;;;;5040351;28;20029;-76
2022/05/24 02:06:59;;;;;;;1.15;0.80;;;;;;;;;;5046282;28;20028;-76
2022/05/24 02:09:26;;;;;;;1.23;0.90;;;;;;;;;;5042275;28;20040;-77
2022/05/24 02:11:51;;;;;;;1.00;0.95;;;;;;;;;;5046689;28;20069;-76
2022/05/24 02:14:19;;;;;;;1.75;1.40;;;;;;;;;;5041723;28;20059;-77
2022/05/24 02:16:53;;;;;;;4.15;0.98;;;;;;;;;;5045576;28;20041;-77
2022/05/24 02:19:19;;;;;;;0.60;0.60;;;;;;;;;;5042777;28;20082;-77
2022/05/24 02:21:46;;;;;;;1.20;1.10;;;;;;;;;;5050032;28;20028;-77
2022/05/24 02:24:22;;;;;;;1.45;1.20;;;;;;;;;;5049037;28;20036;-77
2022/05/24 02:26:49;;;;;;;0.95;0.88;;;;;;;;;;5047787;28;20400;-77
2022/05/24 02:29:15;;;;;;;0.93;0.90;;;;;;;;;;5042373;28;20020;-76
2022/05/24 02:31:42;;;;;;;1.10;0.80;;;;;;;;;;5049476;28;20460;-77
2022/05/24 02:34:08;;;;;;;1.02;0.90;;;;;;;;;;5036903;28;20040;-76
2022/05/24 02:36:34;;;;;;;1.27;0.82;;;;;;;;;;5029878;28;20026;-76
2022/05/24 02:39:00;;;;;;;0.98;0.90;;;;;;;;;;5046441;28;20037;-76
2022/05/24 02:41:29;;;;;;;1.25;0.85;;;;;;;;;;5049898;28;20028;-77
2022/05/24 02:43:56;;;;;;;5.60;0.82;;;;;;;;;;5038985;28;20021;-76
2022/05/24 02:46:22;;;;;;;1.17;1.08;;;;;;;;;;5041260;28;20079;-77
2022/05/24 02:48:47;;;;;;;1.58;1.33;;;;;;;;;;5038941;28;20037;-76
2022/05/24 02:51:14;;;;;;;3.85;0.90;;;;;;;;;;5038035;28;20135;-77
2022/05/24 02:53:41;;;;;;;1.52;1.05;;;;;;;;;;5049246;28;20086;-77
2022/05/24 02:56:07;;;;;;;1.58;1.13;;;;;;;;;;5048299;28;20037;-77
2022/05/24 02:58:34;;;;;;;1.02;0.70;;;;;;;;;;5046943;28;20116;-77
2022/05/24 03:01:00;;;;;;;1.30;1.23;;;;;;;;;;5029497;28;20028;-76
2022/05/24 03:03:25;;;;;;;2.35;1.63;;;;;;;;;;5039971;28;20038;-77
2022/05/24 03:05:51;;;;;;;0.98;0.88;;;;;;;;;;5048385;28;20032;-77
2022/05/24 03:11:02;;;;;;;2.22;1.08;;;;;;;;;;5046806;28;20040;-77
2022/05/24 03:16:14;;;;;;;0.88;0.82;;;;;;;;;;5045603;28;20031;-78
2022/05/24 03:18:41;;;;;;;1.10;1.00;;;;;;;;;;5039961;28;20140;-76
2022/05/24 03:21:07;;;;;;;1.38;1.23;;;;;;;;;;5041183;28;20043;-76
2022/05/24 03:23:34;;;;;;;1.10;1.00;;;;;;;;;;5046853;28;20115;-76
2022/05/24 03:25:59;;;;;;;1.27;1.17;;;;;;;;;;5038906;28;20026;-76
2022/05/24 03:28:26;;;;;;;1.55;0.98;;;;;;;;;;5044658;28;20373;-76
2022/05/24 03:30:53;;;;;;;2.75;1.30;;;;;;;;;;5047234;28;20029;-76
2022/05/24 03:33:19;;;;;;;6.45;0.95;;;;;;;;;;5048207;28;20044;-76
2022/05/24 03:35:45;;;;;;;1.23;0.82;;;;;;;;;;5046661;28;20028;-76
2022/05/24 03:38:11;;;;;;;1.58;1.15;;;;;;;;;;5044934;28;20753;-77
2022/05/24 03:40:37;;;;;;;1.45;1.17;;;;;;;;;;5048065;28;20021;-77
2022/05/24 03:43:03;;;;;;;1.95;1.15;;;;;;;;;;5046075;28;20033;-76
2022/05/24 03:45:29;;;;;;;2.22;1.27;;;;;;;;;;5044837;28;20376;-77
2022/05/24 03:47:55;;;;;;;1.45;1.13;;;;;;;;;;5040768;28;20034;-76
2022/05/24 03:50:22;;;;;;;1.50;1.20;;;;;;;;;;5049126;28;20044;-76
2022/05/24 03:52:48;;;;;;;0.77;0.77;;;;;;;;;;5039479;28;20456;-76
2022/05/24 03:55:15;;;;;;;2.05;1.35;;;;;;;;;;5044558;28;20483;-76
2022/05/24 04:00:26;;;;;;;1.30;1.10;;;;;;;;;;5043554;28;20408;-77
2022/05/24 04:02:52;;;;;;;1.00;0.90;;;;;;;;;;5036545;28;20108;-77
2022/05/24 04:05:18;;;;;;;1.48;1.05;;;;;;;;;;5046176;28;20498;-76
2022/05/24 04:07:43;;;;;;;1.52;1.30;;;;;;;;;;5050587;28;20053;-77
2022/05/24 04:10:11;;;;;;;1.90;1.50;;;;;;;;;;5048867;28;20451;-76
2022/05/24 04:12:37;;;;;;;3.40;1.00;;;;;;;;;;5039772;28;20029;-76
2022/05/24 04:15:03;;;;;;;2.00;1.30;;;;;;;;;;5041215;28;20026;-77
2022/05/24 04:17:29;;;;;;;2.78;1.55;;;;;;;;;;5047117;28;20392;-77
2022/05/24 04:19:54;;;;;;;5.93;1.33;;;;;;;;;;5045581;28;20021;-77
2022/05/24 04:22:20;;;;;;;1.60;1.35;;;;;;;;;;5041791;28;20028;-77
2022/05/24 04:24:46;;;;;;;1.20;1.10;;;;;;;;;;5049152;28;20104;-77
2022/05/24 04:27:13;;;;;;;1.02;0.95;;;;;;;;;;5049441;28;20029;-76
2022/05/24 04:29:39;;;;;;;1.67;1.10;;;;;;;;;;5047413;28;20074;-77
2022/05/24 04:32:06;;;;;;;2.35;1.15;;;;;;;;;;5034716;28;20053;-78
2022/05/24 04:34:32;;;;;;;1.05;0.95;;;;;;;;;;5049822;28;20029;-77
2022/05/24 04:36:58;;;;;;;1.50;1.10;;;;;;;;;;5049049;28;20032;-78
2022/05/24 04:39:24;;;;;;;1.60;1.45;;;;;;;;;;5043006;28;20044;-77
2022/05/24 04:44:34;;;;;;;1.25;0.82;;;;;;;;;;5047881;28;20032;-77
2022/05/24 04:47:09;;;;;;;2.13;1.50;;;;;;;;;;5045941;28;20548;-77
2022/05/24 04:49:35;;;;;;;1.30;1.20;;;;;;;;;;5034073;28;20108;-78
2022/05/24 04:52:02;;;;;;;3.10;1.55;;;;;;;;;;5040185;28;20045;-77
2022/05/24 04:54:28;;;;;;;1.55;1.00;;;;;;;;;;5042807;28;20024;-77
2022/05/24 04:56:54;;;;;;;1.80;1.58;;;;;;;;;;5046153;28;20025;-77
2022/05/24 04:59:20;;;;;;;2.08;1.77;;;;;;;;;;5049948;28;20071;-77
2022/05/24 05:01:51;;;;;;;1.80;1.17;;;;;;;;;;5043164;28;20033;-81
2022/05/24 05:04:17;;;;;;;1.92;1.67;;;;;;;;;;5048735;28;20021;-82
2022/05/24 05:06:44;;;;;;;9.35;1.17;;;;;;;;;;5046635;28;20534;-82
2022/05/24 05:09:11;;;;;;;1.45;1.02;;;;;;;;;;5041734;28;20080;-81
2022/05/24 05:11:36;;;;;;;2.38;1.73;;;;;;;;;;5049485;28;20266;-79
2022/05/24 05:14:02;;;;;;;2.45;1.27;;;;;;;;;;5047026;28;20086;-76
2022/05/24 05:16:32;;;;;;;2.25;1.73;;;;;;;;;;5036997;28;20432;-79
2022/05/24 05:18:58;;;;;;;1.77;1.23;;;;;;;;;;5042757;28;20029;-77
2022/05/24 05:21:24;;;;;;;6.38;1.40;;;;;;;;;;5047714;28;20029;-76
2022/05/24 05:23:50;;;;;;;1.48;1.15;;;;;;;;;;5048803;28;20650;-78
2022/05/24 05:26:16;;;;;;;2.40;1.20;;;;;;;;;;5039759;28;20040;-78
2022/05/24 05:28:42;;;;;;;1.20;1.05;;;;;;;;;;5032805;28;20438;-79
2022/05/24 05:31:22;;;;;;;2.03;1.15;;;;;;;;;;5048167;28;20044;-77
2022/05/24 05:33:48;;;;;;;1.65;1.23;;;;;;;;;;5042649;28;20124;-77
2022/05/24 05:36:15;;;;;;;1.83;1.17;;;;;;;;;;5036553;28;20531;-78
2022/05/24 05:38:45;;;;;;;2.15;1.20;;;;;;;;;;5047053;28;20037;-76
2022/05/24 05:41:11;;;;;;;1.10;0.93;;;;;;;;;;5044916;28;20127;-77
2022/05/24 05:43:37;;;;;;;1.25;1.15;;;;;;;;;;5047420;28;20025;-78
2022/05/24 05:46:04;;;;;;;1.58;1.45;;;;;;;;;;5046205;28;20154;-76
2022/05/24 05:48:30;;;;;;;1.10;0.95;;;;;;;;;;5044067;28;20678;-76
2022/05/24 05:50:56;;;;;;;1.58;1.30;;;;;;;;;;5045433;28;20036;-77
2022/05/24 05:53:22;;;;;;;1.73;0.95;;;;;;;;;;5045035;28;20029;-76
2022/05/24 05:56:12;;;;;;;2.80;1.40;;;;;;;;;;5040206;28;20060;-79
2022/05/24 05:58:38;;;;;;;2.22;1.67;;;;;;;;;;5044477;28;20028;-75
2022/05/24 06:01:04;;;;;;;2.10;1.48;;;;;;;;;;5044184;28;20391;-78
2022/05/24 06:03:30;;;;;;;2.05;1.40;;;;;;;;;;5039810;28;20044;-78
2022/05/24 06:06:00;;;;;;;1.95;1.52;;;;;;;;;;5043852;28;20037;-80
2022/05/24 06:08:26;;;;;;;1.88;1.65;;;;;;;;;;5048568;28;20044;-80
2022/05/24 06:10:53;;;;;;;2.60;1.65;;;;;;;;;;5045227;28;20085;-79
2022/05/24 06:13:19;;;;;;;1.13;1.02;;;;;;;;;;5047411;28;20036;-80
2022/05/24 06:15:47;;;;;;;3.33;2.30;;;;;;;;;;5045656;28;20037;-79
2022/05/24 06:18:13;;;;;;;5.72;1.88;;;;;;;;;;5043625;28;20480;-79
2022/05/24 06:23:37;;;;;;;1.27;1.10;;;;;;;;;;5032681;28;20511;-78
2022/05/24 06:26:03;;;;;;;0.88;0.88;;;;;;;;;;5048228;28;20035;-79
2022/05/24 06:28:29;;;;;;;1.02;0.93;;;;;;;;;;5050011;28;20108;-79
2022/05/24 06:30:55;;;;;;;2.25;1.50;;;;;;;;;;5048384;28;20570;-78
2022/05/24 06:33:21;;;;;;;0.88;0.85;;;;;;;;;;5049315;28;20037;-77
2022/05/24 06:35:47;;;;;;;1.45;1.30;;;;;;;;;;5049839;28;20017;-79
2022/05/24 06:38:13;;;;;;;2.15;1.35;;;;;;;;;;5049272;28;20502;-78
2022/05/24 06:40:39;;;;;;;1.67;1.20;;;;;;;;;;5042318;28;20042;-78
2022/05/24 06:43:05;;;;;;;3.70;1.20;;;;;;;;;;5049332;28;20025;-78
2022/05/24 06:45:32;;;;;;;0.50;0.47;;;;;;;;;;5049095;28;20029;-79
2022/05/24 06:47:58;;;;;;;6.65;1.38;;;;;;;;;;5047407;28;20033;-78
2022/05/24 06:50:24;;;;;;;1.25;0.88;;;;;;;;;;5048892;28;20439;-78
2022/05/24 06:52:54;;;;;;;1.27;1.15;;;;;;;;;;5048931;28;20666;-80
2022/05/24 06:55:21;;;;;;;1.25;0.80;;;;;;;;;;5049144;28;20402;-79
2022/05/24 06:57:47;;;;;;;2.33;1.25;;;;;;;;;;5040424;28;20087;-77
2022/05/24 07:03:10;;;;;;;2.13;1.23;;;;;;;;;;5042094;28;20052;-76
2022/05/24 07:05:36;;;;;;;1.13;1.02;;;;;;;;;;5028934;28;20025;-78
2022/05/24 07:08:02;;;;;;;2.05;1.55;;;;;;;;;;5039077;28;20029;-77
2022/05/24 07:10:29;;;;;;;1.17;1.08;;;;;;;;;;5059777;28;20104;-77
2022/05/24 07:13:02;;;;;;;1.60;1.20;;;;;;;;;;5035282;28;20427;-77
2022/05/24 07:15:29;;;;;;;1.45;1.35;;;;;;;;;;5049145;28;20041;-76
2022/05/24 07:17:55;;;;;;;2.67;1.02;;;;;;;;;;5036427;28;20028;-76
2022/05/24 07:20:21;;;;;;;1.52;0.90;;;;;;;;;;5047770;28;20072;-76
2022/05/24 07:22:48;;;;;;;2.28;1.38;;;;;;;;;;5046810;28;20147;-77
2022/05/24 07:25:14;;;;;;;1.08;0.70;;;;;;;;;;5047541;28;20100;-77
2022/05/24 07:27:40;;;;;;;1.27;1.00;;;;;;;;;;5047726;28;20132;-77
2022/05/24 07:30:06;;;;;;;0.82;0.80;;;;;;;;;;5047730;28;20124;-77
2022/05/24 07:32:32;;;;;;;1.35;0.98;;;;;;;;;;5051617;28;20036;-78
2022/05/24 07:34:59;;;;;;;3.03;1.23;;;;;;;;;;5052940;28;20024;-78
2022/05/24 07:37:26;;;;;;;1.00;0.90;;;;;;;;;;5051599;28;20041;-76
2022/05/24 07:45:48;;;;;;;2.85;1.23;;;;;;;;;;5051802;28;20028;-77
2022/05/24 07:48:09;;;;;;;1.17;1.08;;;;;;;;;;5032207;28;20087;-77
2022/05/24 07:50:34;;;;;;;1.02;0.90;;;;;;;;;;5041150;28;20033;-77
2022/05/24 07:53:00;;;;;;;1.40;1.30;;;;;;;;;;5050837;28;20410;-77
2022/05/24 07:55:26;;;;;;;1.95;1.02;;;;;;;;;;5051128;28;20159;-77
2022/05/24 07:57:52;;;;;;;1.77;1.00;;;;;;;;;;5050886;28;20063;-78
2022/05/24 08:00:18;;;;;;;3.67;1.15;;;;;;;;;;5051763;28;20548;-77
2022/05/24 08:02:44;;;;;;;0.80;0.60;;;;;;;;;;5051710;28;20110;-77
2022/05/24 08:05:11;;;;;;;0.68;0.55;;;;;;;;;;5051259;28;20021;-78
2022/05/24 08:07:37;;;;;;;0.60;0.60;;;;;;;;;;5049877;28;20021;-76
2022/05/24 08:10:04;;;;;;;1.02;0.90;;;;;;;;;;5051602;28;20492;-77
2022/05/24 08:12:30;;;;;;;0.80;0.70;;;;;;;;;;5037260;28;20021;-78
2022/05/24 08:14:55;;;;;;;1.77;1.10;;;;;;;;;;5031840;28;20483;-77
2022/05/24 08:17:22;;;;;;;0.55;0.55;;;;;;;;;;5045886;28;20381;-77
2022/05/24 08:19:47;;;;;;;0.63;0.60;;;;;;;;;;5051637;28;20031;-77
2022/05/24 08:22:13;;;;;;;1.42;0.85;;;;;;;;;;5052274;28;20104;-77
2022/05/24 08:24:39;;;;;;;1.95;0.82;;;;;;;;;;5051929;28;20024;-76
2022/05/24 08:27:06;;;;;;;0.32;0.30;;;;;;;;;;5051120;28;20087;-77
2022/05/24 08:29:34;;;;;;;0.50;0.50;;;;;;;;;;5049977;28;20033;-77
2022/05/24 08:32:02;;;;;;;0.50;0.43;;;;;;;;;;5037355;28;20473;-77
2022/05/24 08:34:29;;;;;;;1.13;0.85;;;;;;;;;;5031847;28;20041;-77
2022/05/24 08:36:56;;;;;;;0.90;0.70;;;;;;;;;;5032013;28;20101;-78
2022/05/24 08:39:22;;;;;;;1.02;0.80;;;;;;;;;;5038928;28;20064;-78
2022/05/24 08:41:55;;;;;;;0.63;0.60;;;;;;;;;;5041170;28;20511;-77
2022/05/24 08:49:59;;;;;;;1.95;0.85;;;;;;;;;;5048685;28;20141;-78
2022/05/24 08:52:29;;;;;;;0.57;0.57;;;;;;;;;;5050390;28;20446;-78
2022/05/24 08:54:55;;;;;;;3.83;1.30;;;;;;;;;;5050334;28;20040;-78
2022/05/24 08:57:44;;;;;;;0.60;0.60;;;;;;;;;;5051341;28;20021;-77
2022/05/24 09:00:13;;;;;;;0.95;0.50;;;;;;;;;;5024830;28;20037;-77
2022/05/24 09:02:43;;;;;;;0.98;0.80;;;;;;;;;;5050459;28;20045;-78
2022/05/24 09:05:15;;;;;;;0.50;0.40;;;;;;;;;;5051244;28;20033;-76
2022/05/24 09:07:45;;;;;;;1.40;0.40;;;;;;;;;;5051723;28;20033;-78
2022/05/24 09:10:14;;;;;;;0.40;0.40;;;;;;;;;;5049450;28;20124;-77
2022/05/24 09:12:46;;;;;;;2.50;0.65;;;;;;;;;;5048968;28;20076;-77
2022/05/24 09:15:18;;;;;;;0.30;0.30;;;;;;;;;;5030950;28;20033;-77
2022/05/24 09:17:44;;;;;;;0.22;0.22;;;;;;;;;;5040112;28;20029;-77
2022/05/24 09:20:30;;;;;;;0.52;0.43;;;;;;;;;;5031227;28;20075;-78
2022/05/24 09:23:14;;;;;;;0.40;0.38;;;;;;;;;;5020662;28;20038;-77
2022/05/24 09:26:03;;;;;;;1.33;0.60;;;;;;;;;;5033007;28;20111;-79
2022/05/24 09:28:48;;;;;;;0.45;0.45;;;;;;;;;;5039772;28;20051;-77
2022/05/24 09:31:38;;;;;;;0.40;0.40;;;;;;;;;;5050672;28;20492;-77
2022/05/24 09:34:07;;;;;;;0.30;0.30;;;;;;;;;;4975527;28;20097;-77
2022/05/24 09:36:38;;;;;;;0.35;0.35;;;;;;;;;;5027029;28;20037;-78
2022/05/24 09:39:06;;;;;;;0.40;0.40;;;;;;;;;;5047433;28;20040;-78
2022/05/24 09:41:32;;;;;;;0.47;0.43;;;;;;;;;;5053731;28;20025;-77
2022/05/24 09:44:16;;;;;;;0.63;0.50;;;;;;;;;;5056838;28;20077;-77
2022/05/24 09:46:43;;;;;;;0.40;0.20;;;;;;;;;;5058515;28;20032;-78
2022/05/24 09:49:15;;;;;;;3.50;1.10;;;;;;;;;;5050318;28;20040;-78
2022/05/24 09:51:41;;;;;;;0.52;0.40;;;;;;;;;;5050450;28;20387;-78
2022/05/24 09:54:15;;;;;;;0.68;0.45;;;;;;;;;;5050867;28;20025;-78
2022/05/24 09:56:42;;;;;;;0.20;0.20;;;;;;;;;;5049535;28;20251;-77
2022/05/24 09:59:19;;;;;;;1.55;0.30;;;;;;;;;;5049418;28;20170;-77
2022/05/24 10:01:49;;;;;;;0.55;0.50;;;;;;;;;;5041803;28;20041;-77
2022/05/24 10:04:18;;;;;;;0.40;0.40;;;;;;;;;;5029910;28;20033;-78
2022/05/24 10:06:52;;;;;;;1.27;0.70;;;;;;;;;;5030406;28;20025;-77
2022/05/24 10:09:40;;;;;;;0.20;0.20;;;;;;;;;;5045885;28;20029;-78
2022/05/24 10:12:10;;;;;;;0.10;0.10;;;;;;;;;;5039064;28;20072;-77
2022/05/24 10:14:56;;;;;;;0.60;0.40;;;;;;;;;;5030268;28;20116;-77
2022/05/24 10:17:25;;;;;;;0.50;0.50;;;;;;;;;;5036183;28;20079;-78
2022/05/24 10:19:51;;;;;;;0.80;0.60;;;;;;;;;;5048669;28;20032;-78
2022/05/24 10:22:31;;;;;;;0.50;0.50;;;;;;;;;;5050236;28;20017;-78
2022/05/24 10:25:08;;;;;;;0.50;0.50;;;;;;;;;;5049898;28;20028;-77
2022/05/24 10:27:42;;;;;;;1.17;0.93;;;;;;;;;;5048740;28;20008;-78
2022/05/24 10:30:16;;;;;;;0.47;0.47;;;;;;;;;;5049797;28;20078;-78
2022/05/24 10:38:32;;;;;;;0.65;0.50;;;;;;;;;;5048537;28;20043;-78
2022/05/24 10:41:12;;;;;;;0.47;0.45;;;;;;;;;;5049554;28;20023;-78
2022/05/24 10:43:43;;;;;;;0.50;0.50;;;;;;;;;;5049767;28;20017;-78
2022/05/24 10:46:15;;;;;;;0.30;0.30;;;;;;;;;;5047726;28;20037;-78
2022/05/24 10:48:59;;;;;;;0.40;0.40;;;;;;;;;;5049536;28;20506;-77
2022/05/24 10:51:31;;;;;;;7.40;1.02;;;;;;;;;;5048198;28;20119;-78
2022/05/24 10:54:01;;;;;;;0.30;0.30;;;;;;;;;;5039845;28;20035;-77
2022/05/24 10:56:37;;;;;;;1.50;0.50;;;;;;;;;;5029341;28;20787;-77
2022/05/24 10:59:11;;;;;;;0.55;0.47;;;;;;;;;;5030022;28;20128;-78
2022/05/24 11:01:46;;;;;;;2.38;1.38;;;;;;;;;;5043462;28;20514;-77
2022/05/24 11:04:17;;;;;;;0.65;0.57;;;;;;;;;;5049209;28;20052;-78
2022/05/24 11:06:46;;;;;;;0.55;0.55;;;;;;;;;;5050823;28;20025;-78
2022/05/24 11:09:15;;;;;;;0.40;0.40;;;;;;;;;;5053973;28;20032;-78
2022/05/24 11:11:55;;;;;;;0.65;0.60;;;;;;;;;;5052834;28;20052;-78
2022/05/24 11:14:21;;;;;;;0.63;0.50;;;;;;;;;;5048110;28;20399;-77
2022/05/24 11:16:48;;;;;;;1.65;0.65;;;;;;;;;;5042251;28;20021;-78
2022/05/24 11:19:15;;;;;;;0.43;0.43;;;;;;;;;;5052531;28;20040;-78
2022/05/24 11:21:49;;;;;;;1.30;0.70;;;;;;;;;;5051144;28;20025;-77
2022/05/24 11:24:21;;;;;;;0.70;0.70;;;;;;;;;;5050409;28;20052;-77
2022/05/24 11:26:53;;;;;;;0.47;0.47;;;;;;;;;;5052139;28;20116;-77
2022/05/24 11:29:19;;;;;;;0.40;0.40;;;;;;;;;;5052541;28;20017;-78
2022/05/24 11:31:53;;;;;;;0.73;0.50;;;;;;;;;;5052528;28;20032;-78
2022/05/24 11:34:21;;;;;;;0.47;0.47;;;;;;;;;;5049512;28;20033;-77
2022/05/24 11:37:01;;;;;;;0.47;0.47;;;;;;;;;;5052293;28;20430;-77
2022/05/24 11:39:30;;;;;;;0.40;0.40;;;;;;;;;;5052413;28;20021;-77
2022/05/24 11:42:15;;;;;;;0.40;0.40;;;;;;;;;;5049340;28;20094;-77
2022/05/24 11:44:41;;;;;;;0.30;0.30;;;;;;;;;;5051404;28;20550;-77
2022/05/24 11:47:07;;;;;;;0.60;0.60;;;;;;;;;;5052165;28;20117;-77
2022/05/24 11:49:33;;;;;;;1.08;0.77;;;;;;;;;;5052319;28;20036;-77
2022/05/24 11:51:59;;;;;;;0.70;0.60;;;;;;;;;;5052156;28;20151;-77
2022/05/24 11:54:25;;;;;;;0.38;0.38;;;;;;;;;;5050229;28;20044;-78
2022/05/24 11:57:07;;;;;;;0.32;0.32;;;;;;;;;;5052161;28;20037;-77
2022/05/24 11:59:39;;;;;;;0.50;0.50;;;;;;;;;;5050740;28;20036;-78
2022/05/24 12:02:25;;;;;;;0.47;0.45;;;;;;;;;;5051625;28;20072;-79
2022/05/24 12:07:54;;;;;;;0.55;0.50;;;;;;;;;;5050809;28;20102;-78
2022/05/24 12:10:26;;;;;;;0.32;0.30;;;;;;;;;;5052373;28;20108;-78
2022/05/24 12:13:11;;;;;;;0.50;0.50;;;;;;;;;;5034756;28;20029;-77
2022/05/24 12:15:37;;;;;;;0.50;0.50;;;;;;;;;;5040252;28;20095;-77
2022/05/24 12:18:03;;;;;;;0.40;0.40;;;;;;;;;;5048528;28;20033;-76
2022/05/24 12:20:35;;;;;;;0.63;0.50;;;;;;;;;;5051469;28;20052;-78
2022/05/24 12:23:07;;;;;;;0.60;0.50;;;;;;;;;;5051575;28;20036;-78
2022/05/24 12:25:52;;;;;;;0.55;0.50;;;;;;;;;;5050674;28;20043;-78
2022/05/24 12:28:22;;;;;;;0.35;0.35;;;;;;;;;;5050985;28;20028;-78
2022/05/24 12:30:49;;;;;;;0.90;0.70;;;;;;;;;;5048452;28;20028;-78
2022/05/24 12:33:23;;;;;;;0.57;0.43;;;;;;;;;;5046956;28;20025;-77
2022/05/24 12:35:51;;;;;;;0.63;0.43;;;;;;;;;;5051567;28;20037;-78
2022/05/24 12:38:17;;;;;;;0.30;0.30;;;;;;;;;;5051326;28;20423;-78
2022/05/24 12:40:43;;;;;;;0.68;0.68;;;;;;;;;;5049149;28;20078;-78
2022/05/24 12:43:14;;;;;;;0.50;0.50;;;;;;;;;;5051554;28;20032;-78
2022/05/24 12:45:43;;;;;;;0.82;0.63;;;;;;;;;;5051695;28;20363;-77
2022/05/24 12:48:28;;;;;;;0.38;0.38;;;;;;;;;;5050703;28;20085;-77
2022/05/24 12:51:01;;;;;;;0.63;0.60;;;;;;;;;;5047389;28;20032;-77
2022/05/24 12:53:27;;;;;;;0.38;0.38;;;;;;;;;;5051118;28;20029;-77
2022/05/24 12:56:04;;;;;;;0.40;0.40;;;;;;;;;;5050959;28;20044;-78
2022/05/24 12:58:35;;;;;;;0.47;0.47;;;;;;;;;;5050865;28;20025;-78
2022/05/24 13:01:16;;;;;;;1.40;0.63;;;;;;;;;;5049476;28;20044;-77
2022/05/24 13:03:46;;;;;;;0.77;0.70;;;;;;;;;;5049038;28;20118;-77
2022/05/24 13:06:20;;;;;;;0.68;0.68;;;;;;;;;;5050543;28;20029;-78
2022/05/24 13:08:46;;;;;;;0.70;0.60;;;;;;;;;;5050927;28;20032;-78
2022/05/24 13:11:12;;;;;;;1.45;0.70;;;;;;;;;;5048937;28;20029;-77
2022/05/24 13:13:37;;;;;;;0.40;0.40;;;;;;;;;;5050871;28;20373;-78
2022/05/24 13:16:06;;;;;;;0.50;0.50;;;;;;;;;;5047262;28;20487;-78
2022/05/24 13:18:34;;;;;;;0.73;0.57;;;;;;;;;;5042986;28;20036;-79
2022/05/24 13:21:08;;;;;;;0.68;0.68;;;;;;;;;;5046389;28;20117;-79
2022/05/24 13:23:36;;;;;;;0.57;0.43;;;;;;;;;;5037782;28;20283;-79
2022/05/24 13:26:02;;;;;;;1.88;1.10;;;;;;;;;;5036757;28;20033;-79
2022/05/24 13:28:34;;;;;;;0.50;0.50;;;;;;;;;;5034489;28;20112;-78
2022/05/24 13:33:51;;;;;;;1.02;0.98;;;;;;;;;;5030336;28;20064;-79
2022/05/24 13:36:19;;;;;;;0.68;0.68;;;;;;;;;;5037431;28;20356;-78
2022/05/24 13:38:45;;;;;;;0.60;0.60;;;;;;;;;;5046079;28;20037;-78
2022/05/24 13:41:12;;;;;;;1.08;0.98;;;;;;;;;;5038863;28;20036;-78
2022/05/24 13:43:40;;;;;;;1.20;0.70;;;;;;;;;;5047915;28;20533;-78
2022/05/24 13:46:17;;;;;;;0.80;0.75;;;;;;;;;;5050261;28;20049;-78
2022/05/24 13:48:45;;;;;;;0.70;0.70;;;;;;;;;;5050196;28;20032;-77
2022/05/24 13:51:18;;;;;;;0.52;0.50;;;;;;;;;;5050191;28;20049;-77
2022/05/24 13:53:46;;;;;;;0.40;0.40;;;;;;;;;;5040140;28;20025;-77
2022/05/24 13:56:17;;;;;;;0.50;0.50;;;;;;;;;;5034947;28;20510;-78
2022/05/24 13:58:46;;;;;;;0.98;0.88;;;;;;;;;;5039163;28;20032;-79
2022/05/24 14:01:23;;;;;;;0.80;0.80;;;;;;;;;;5049947;28;20105;-77
2022/05/24 14:04:01;;;;;;;4.35;0.90;;;;;;;;;;5048336;28;20484;-76
2022/05/24 14:06:28;;;;;;;1.75;0.73;;;;;;;;;;5048678;28;20060;-75
2022/05/24 14:08:55;;;;;;;1.17;0.82;;;;;;;;;;5048150;28;20045;-76
2022/05/24 14:11:24;;;;;;;0.75;0.70;;;;;;;;;;5044397;28;20033;-77
2022/05/24 14:13:51;;;;;;;1.02;0.93;;;;;;;;;;5035542;28;20113;-77
2022/05/24 14:16:17;;;;;;;1.13;1.00;;;;;;;;;;5038759;28;20101;-77
2022/05/24 14:18:44;;;;;;;1.20;0.73;;;;;;;;;;5034401;28;20451;-80
2022/05/24 14:21:10;;;;;;;1.55;1.00;;;;;;;;;;5043133;28;20027;-78
2022/05/24 14:23:36;;;;;;;1.42;0.80;;;;;;;;;;5049343;28;20021;-78
2022/05/24 14:26:03;;;;;;;0.68;0.68;;;;;;;;;;5047325;28;20079;-77
2022/05/24 14:28:29;;;;;;;3.35;0.70;;;;;;;;;;5048566;28;20032;-78
2022/05/24 14:30:55;;;;;;;0.60;0.60;;;;;;;;;;5049547;28;20086;-76
2022/05/24 14:33:22;;;;;;;0.32;0.32;;;;;;;;;;5046077;28;20315;-77
2022/05/24 14:35:49;;;;;;;0.50;0.50;;;;;;;;;;5045188;28;20035;-75
2022/05/24 14:38:15;;;;;;;0.60;0.60;;;;;;;;;;5048664;28;20029;-76
2022/05/24 14:40:41;;;;;;;0.57;0.57;;;;;;;;;;5041765;28;20453;-75
2022/05/24 14:43:19;;;;;;;0.40;0.40;;;;;;;;;;5046539;28;20036;-77
2022/05/24 14:45:45;;;;;;;0.20;0.20;;;;;;;;;;5039254;28;20472;-76
2022/05/24 14:48:11;;;;;;;0.32;0.30;;;;;;;;;;5032716;28;20041;-75
2022/05/24 14:50:38;;;;;;;0.35;0.32;;;;;;;;;;5041834;28;20070;-75
2022/05/24 14:53:05;;;;;;;0.30;0.30;;;;;;;;;;5042004;28;20040;-76
2022/05/24 14:55:31;;;;;;;0.35;0.30;;;;;;;;;;5029357;28;20071;-79
2022/05/24 14:57:57;;;;;;;0.55;0.43;;;;;;;;;;5039506;28;20060;-77
2022/05/24 15:00:24;;;;;;;0.30;0.30;;;;;;;;;;5032578;28;20021;-76
2022/05/24 15:02:50;;;;;;;0.43;0.43;;;;;;;;;;5049065;28;20131;-77
2022/05/24 15:05:16;;;;;;;0.70;0.70;;;;;;;;;;5049338;28;20049;-76
2022/05/24 15:15:59;;;;;;;0.45;0.45;;;;;;;;;;5035241;28;20214;-77
2022/05/24 15:18:24;;;;;;;0.77;0.40;;;;;;;;;;5040987;28;20533;-76
2022/05/24 15:20:50;;;;;;;0.40;0.40;;;;;;;;;;5046915;28;20078;-76
2022/05/24 15:23:18;;;;;;;0.20;0.20;;;;;;;;;;5037335;28;20025;-76
2022/05/24 15:25:53;;;;;;;0.22;0.22;;;;;;;;;;5044236;28;20119;-76
2022/05/24 15:28:20;;;;;;;0.20;0.20;;;;;;;;;;5042967;28;20072;-76
2022/05/24 15:30:46;;;;;;;0.22;0.20;;;;;;;;;;5032879;28;20098;-75
2022/05/24 15:33:12;;;;;;;0.20;0.20;;;;;;;;;;5037408;28;20510;-76
2022/05/24 15:35:39;;;;;;;0.73;0.30;;;;;;;;;;5044316;28;20412;-76
2022/05/24 15:38:05;;;;;;;0.57;0.45;;;;;;;;;;5037489;28;20025;-77
2022/05/24 15:40:33;;;;;;;0.20;0.20;;;;;;;;;;5044962;28;20263;-76
2022/05/24 15:43:00;;;;;;;0.40;0.35;;;;;;;;;;5047145;28;20033;-77
2022/05/24 15:45:26;;;;;;;0.30;0.30;;;;;;;;;;5043816;28;20029;-76
2022/05/24 15:47:52;;;;;;;0.55;0.38;;;;;;;;;;5036001;28;20061;-76